Terminal Aerodrome Forecast
Issued by NWS Wilmington, OH

Current Version | Previous Version | Graphics & Text | Print | Product List | Glossary Off
Versions: 1 2 3 4 5 6 7 8 9 10 11 12 13 14 15 16 17 18 19 20 21

000
FTUS41 KILN 290500
TAFDAY
TAF
KDAY 290528Z 2906/3006 17010KT P6SM SCT150
     FM291300 18012KT P6SM BKN040
     FM291600 20012G22KT P6SM OVC025
     FM292200 20012KT 5SM -DZ BR SCT008 OVC012
     FM300200 21012KT 5SM -RA BR SCT004 OVC008=

USA.gov is the U.S. government's official web portal to all federal, state and local government web resources and services.